Morena (449) Station Data

Red Flag Warning: No
Fire Weather Zone: 258
SDGE Region: Mountain Empire
Lat/Lon: 32.688/-116.512

Observations

Time Wind Speed/Gust Temp(F) RH Fuel Moist Fuel Temp(F) Dewpt(F) Tmax(F) Tmin(F) Accum Precip 10-min Precip SL Press(mb)
3/29 8:00am 303 2 G 4 41° 56% - - 27° 45.7° 31.9° - - -
3/29 7:50am 153 2 G 4 45° 48% - - 26° 45.7° 31.9° - - -
3/29 7:40am 99 3 G 4 41° 51% - - 24° 42.8° 31.9° - - -
3/29 7:30am 130 2 G 4 39° 56% - - 25° 41.2° 31.9° - - -
3/29 7:20am 117 3 G 6 36° 61% - - 24° 41.2° 31.9° - - -
3/29 7:10am 121 3 G 5 33° 73% - - 25° 41.2° 31.9° - - -
3/29 7:00am 241 1 G 3 32° 72% - - 25° 41.2° 31.9° - - -
3/29 6:50am 3 2 G 4 34° 67% - - 24° 41.2° 31.9° - - -
3/29 6:40am 120 4 G 5 33° 70% - - 24° 41.2° 31.9° - - -
3/29 6:30am 155 3 G 5 34° 68% - - 24° 41.2° 31.9° - - -
3/29 6:20am 118 3 G 6 33° 72% - - 24° 41.2° 31.9° - - -
3/29 6:10am 268 1 G 3 33° 69% - - 24° 41.2° 32.6° - - -
3/29 6:00am 219 1 G 2 33° 67% - - 23° 41.2° 32.8° - - -
3/29 5:50am 337 1 G 3 34° 63% - - 23° 41.2° 33.2° - - -
3/29 5:40am 95 1 G 4 35° 61% - - 23° 41.2° 33.2° - - -
3/29 5:30am 120 3 G 6 34° 65% - - 24° 41.2° 33.2° - - -
3/29 5:20am 163 2 G 6 35° 64% - - 24° 41.2° 33.4° - - -
3/29 5:10am 143 2 G 4 34° 65% - - 23° 41.2° 33.4° - - -
3/29 5:00am 130 2 G 4 34° 65% - - 23° 41.2° 33.4° - - -
3/29 4:50am 270 2 G 5 35° 63% - - 24° 41.2° 33.7° - - -
3/29 4:40am 112 1 G 3 34° 63% - - 23° 41.2° 33.7° - - -
3/29 4:30am 120 0 G 2 35° 61% - - 23° 41.2° 34.3° - - -
3/29 4:20am 85 2 G 5 35° 60% - - 23° 41.2° 34.3° - - -
3/29 4:10am 100 1 G 4 36° 59% - - 23° 41.2° 34.7° - - -
3/29 4:00am 101 1 G 2 38° 54% - - 22° 41.2° 34.7° - - -
3/29 3:50am 116 1 G 3 37° 58% - - 24° 41.2° 34.7° - - -
3/29 3:40am 106 2 G 3 35° 63% - - 24° 41.2° 34.7° - - -
3/29 3:30am 150 2 G 4 35° 63% - - 24° 41.2° 34.7° - - -
3/29 3:20am 63 1 G 3 36° 59% - - 23° 41.2° 35° - - -
3/29 3:10am 88 2 G 4 36° 61% - - 23° 41.2° 35° - - -
3/29 3:00am 154 2 G 5 36° 60% - - 23° 41.2° 35.2° - - -
3/29 2:50am 64 1 G 4 37° 57% - - 23° 41.2° 35.7° - - -
3/29 2:40am 90 1 G 4 37° 56% - - 23° 41.2° 35.9° - - -
3/29 2:30am 69 1 G 3 38° 53% - - 23° 41.2° 35.9° - - -
3/29 2:20am 205 1 G 2 38° 53% - - 23° 41.2° 35.9° - - -
3/29 2:10am 116 3 G 5 38° 52% - - 23° 41.2° 35.9° - - -
3/29 2:00am 117 2 G 4 39° 51% - - 22° 41.2° 35.9° - - -
3/29 1:50am 136 1 G 3 39° 51% - - 23° 41.2° 35.9° - - -
3/29 1:40am 98 3 G 4 37° 61% - - 25° 41.2° 35.9° - - -
3/29 1:30am 139 2 G 4 38° 59% - - 25° 41.2° 36.7° - - -
3/29 1:20am 127 1 G 3 39° 53% - - 24° 41.2° 37.9° - - -
3/29 1:10am 46 1 G 2 41° 50% - - 23° 41.2° 37.9° - - -
3/29 1:00am 87 3 G 5 40° 50% - - 23° 41.2° 37.9° - - -
3/29 12:50am 91 2 G 3 39° 57% - - 26° 41.2° 37.9° - - -
3/29 12:40am 137 3 G 4 38° 64% - - 27° 41.2° 37.9° - - -
3/29 12:30am 137 3 G 4 40° 60% - - 27° 41.2° 38.3° - - -
3/29 12:20am 104 2 G 2 40° 58% - - 26° 41.2° 39° - - -
3/29 12:10am 106 2 G 3 40° 61% - - 28° 41.2° 39° - - -
3/29 12:00am 158 1 G 2 42° 56% - - 27° 68.4° 30.8° - - -
3/28 11:50pm 133 1 G 2 42° 55% - - 27° 68.4° 30.8° - - -
3/28 11:40pm 111 1 G 3 42° 56% - - 28° 68.4° 30.8° - - -
3/28 11:30pm 137 1 G 2 43° 55% - - 28° 68.4° 30.8° - - -
3/28 11:20pm 101 1 G 3 44° 54% - - 28° 68.4° 30.8° - - -
3/28 11:10pm 114 3 G 4 44° 57% - - 30° 68.4° 30.8° - - -
3/28 11:00pm 114 1 G 3 44° 55% - - 29° 68.4° 30.8° - - -
3/28 10:50pm 78 2 G 4 44° 55% - - 29° 68.4° 30.8° - - -
3/28 10:40pm 98 1 G 4 44° 61% - - 31° 68.4° 30.8° - - -
3/28 10:30pm 161 2 G 4 45° 57% - - 31° 68.4° 30.8° - - -
3/28 10:20pm 105 2 G 3 47° 49% - - 28° 68.4° 30.8° - - -
3/28 10:10pm 87 1 G 2 47° 57% - - 32° 68.4° 30.8° - - -
3/28 10:00pm 114 2 G 4 46° 71% - - 37° 68.4° 30.8° - - -
3/28 9:50pm 139 3 G 4 46° 71% - - 37° 68.4° 30.8° - - -
3/28 9:40pm 98 2 G 2 48° 70% - - 39° 68.4° 30.8° - - -
3/28 9:30pm 115 1 G 2 49° 69% - - 39° 68.4° 30.8° - - -
3/28 9:20pm 121 2 G 3 49° 70% - - 39° 68.4° 30.8° - - -
3/28 9:10pm 104 2 G 3 49° 68% - - 40° 68.4° 30.8° - - -
3/28 9:00pm 151 1 G 2 50° 65% - - 39° 68.4° 30.8° - - -
3/28 8:50pm 98 2 G 3 51° 66% - - 40° 68.4° 30.8° - - -
3/28 8:40pm 159 2 G 3 52° 62% - - 39° 68.4° 30.8° - - -
3/28 8:30pm 57 1 G 2 53° 60% - - 40° 68.4° 30.8° - - -
3/28 8:20pm 1 1 G 2 54° 60% - - 41° 68.4° 30.8° - - -
3/28 8:10pm 272 1 G 1 54° 59% - - 41° 68.4° 30.8° - - -
3/28 8:00pm 302 0 G 2 55° 59% - - 41° 68.4° 30.8° - - -
3/28 7:50pm 13 1 G 3 55° 58% - - 41° 68.4° 30.8° - - -
3/28 7:40pm 21 0 G 1 56° 57% - - 41° 68.4° 30.8° - - -
3/28 7:30pm 296 1 G 4 57° 55% - - 41° 68.4° 30.8° - - -
3/28 7:20pm 322 2 G 5 57° 54% - - 41° 68.4° 30.8° - - -
3/28 7:10pm 317 2 G 6 58° 52% - - 41° 68.4° 30.8° - - -
3/28 7:00pm 305 2 G 4 59° 50% - - 41° 68.4° 30.8° - - -
3/28 6:50pm 300 2 G 7 60° 48% - - 41° 68.4° 30.8° - - -
3/28 6:40pm 298 2 G 6 61° 47% - - 41° 68.4° 30.8° - - -
3/28 6:30pm 281 5 G 12 61° 46% - - 40° 68.4° 30.8° - - -
3/28 6:20pm 278 5 G 12 62° 45% - - 40° 68.4° 30.8° - - -
3/28 6:10pm 288 4 G 10 63° 44% - - 40° 68.4° 30.8° - - -
3/28 6:00pm 273 7 G 13 63° 45% - - 41° 68.4° 30.8° - - -
3/28 5:50pm 264 9 G 15 63° 45% - - 41° 68.4° 30.8° - - -
3/28 5:40pm 270 7 G 13 64° 43% - - 41° 68.4° 30.8° - - -
3/28 5:30pm 251 9 G 15 64° 43% - - 41° 68.4° 30.8° - - -
3/28 5:20pm 263 9 G 15 65° 40% - - 40° 68.4° 30.8° - - -
3/28 5:10pm 260 8 G 14 65° 34% - - 37° 68.4° 30.8° - - -
3/28 5:00pm 261 8 G 12 66° 31% - - 35° 68.4° 30.8° - - -
3/28 4:50pm 264 7 G 11 66° 30% - - 34° 68.4° 30.8° - - -
3/28 4:40pm 265 7 G 12 67° 28% - - 33° 68.4° 30.8° - - -
3/28 4:30pm 266 7 G 14 67° 27% - - 32° 68.4° 30.8° - - -
3/28 4:20pm 273 6 G 10 67° 25% - - 30° 68.4° 30.8° - - -
3/28 4:10pm 271 5 G 9 68° 24% - - 30° 68.4° 30.8° - - -
3/28 4:00pm 274 6 G 11 67° 26% - - 31° 68° 30.8° - - -
3/28 3:50pm 266 5 G 12 67° 25% - - 30° 68° 30.8° - - -
3/28 3:40pm 275 6 G 11 67° 25% - - 30° 68° 30.8° - - -
3/28 3:30pm 272 4 G 10 67° 24% - - 30° 68° 30.8° - - -
3/28 3:20pm 255 5 G 13 67° 24% - - 29° 68° 30.8° - - -
3/28 3:10pm 266 6 G 10 67° 24% - - 30° 68° 30.8° - - -
3/28 3:00pm 307 4 G 9 67° 23% - - 29° 67.7° 30.8° - - -
3/28 2:50pm 285 4 G 8 67° 24% - - 29° 67.6° 30.8° - - -
3/28 2:40pm 277 5 G 9 67° 24% - - 29° 67.6° 30.8° - - -
3/28 2:30pm 253 6 G 12 66° 25% - - 29° 67.2° 30.8° - - -
3/28 2:20pm 263 5 G 10 67° 25% - - 29° 67° 30.8° - - -
3/28 2:10pm 263 8 G 13 66° 25% - - 29° 66.7° 30.8° - - -
3/28 2:00pm 263 8 G 13 65° 25% - - 28° 66.7° 30.8° - - -
3/28 1:50pm 271 6 G 11 66° 23% - - 28° 66.7° 30.8° - - -
3/28 1:40pm 275 6 G 11 66° 23% - - 27° 66.2° 30.8° - - -
3/28 1:30pm 273 5 G 10 65° 23% - - 27° 65.9° 30.8° - - -
3/28 1:20pm 246 6 G 11 64° 24% - - 27° 65.5° 30.8° - - -
3/28 1:10pm 266 6 G 12 65° 24% - - 27° 65.5° 30.8° - - -
3/28 1:00pm 269 6 G 11 64° 23% - - 26° 65.5° 30.8° - - -
3/28 12:50pm 268 7 G 12 64° 23% - - 26° 65° 30.8° - - -
3/28 12:40pm 268 8 G 14 64° 23% - - 25° 65° 30.8° - - -
3/28 12:30pm 272 6 G 12 64° 21% - - 24° 64.9° 30.8° - - -
3/28 12:20pm 269 8 G 15 64° 21% - - 23° 64.3° 30.8° - - -
3/28 12:10pm 266 7 G 11 63° 21% - - 23° 64.3° 30.8° - - -
3/28 12:00pm 262 7 G 12 63° 22% - - 24° 64.3° 30.8° - - -
3/28 11:50am 256 9 G 12 62° 23% - - 24° 63.7° 30.8° - - -
3/28 11:40am 267 8 G 14 63° 23% - - 24° 63.7° 30.8° - - -
3/28 11:30am 267 8 G 13 63° 24% - - 25° 63.7° 30.8° - - -
3/28 11:20am 255 9 G 14 63° 25% - - 26° 63.7° 30.8° - - -
3/28 11:10am 245 8 G 14 62° 25% - - 26° 63.7° 30.8° - - -
3/28 11:00am 263 8 G 12 62° 23% - - 24° 63.7° 30.8° - - -
3/28 10:50am 254 6 G 11 62° 21% - - 22° 63.7° 30.8° - - -
3/28 10:40am 257 4 G 10 63° 19% - - 20° 63.7° 30.8° - - -
3/28 10:30am 212 2 G 5 63° 15% - - 14° 63.2° 30.8° - - -
3/28 10:20am 261 2 G 6 61° 18% - - 18° 62.2° 30.8° - - -
3/28 10:10am 252 3 G 7 61° 20% - - 19° 61.8° 30.8° - - -
3/28 10:00am 217 3 G 5 60° 20% - - 19° 60.8° 30.8° - - -
3/28 9:50am 178 2 G 7 60° 21% - - 21° 60.8° 30.8° - - -
3/28 9:40am 122 4 G 7 59° 23% - - 21° 59.4° 30.8° - - -
3/28 9:30am 147 4 G 7 59° 26% - - 24° 59° 30.8° - - -
3/28 9:20am 133 3 G 5 58° 26% - - 23° 58.4° 30.8° - - -
3/28 9:10am 175 2 G 3 57° 28% - - 24° 57.7° 30.8° - - -
3/28 9:00am 99 1 G 2 55° 33% - - 27° 57.1° 30.8° - - -
3/28 8:50am 198 1 G 2 52° 38% - - 27° 53.6° 30.8° - - -
3/28 8:40am 67 1 G 2 50° 44% - - 29° 51.7° 30.8° - - -
3/28 8:30am 103 1 G 2 46° 53% - - 30° 48° 30.8° - - -
3/28 8:20am 19 1 G 2 42° 68% - - 32° 46.7° 30.8° - - -
3/28 8:10am 267 3 G 5 40° 72% - - 31° 46.7° 30.8° - - -
3/28 8:00am 294 2 G 4 40° 67% - - 30° 46.7° 30.8° - - -
3/28 7:50am 358 1 G 2 41° 67% - - 31° 46.7° 30.8° - - -
3/28 7:40am 82 2 G 4 38° 72% - - 30° 46.7° 30.8° - - -
3/28 7:30am 135 1 G 4 36° 77% - - 30° 46.7° 30.8° - - -
3/28 7:20am 98 2 G 4 34° 81% - - 29° 46.7° 30.8° - - -
3/28 7:10am 171 1 G 4 34° 89% - - 31° 46.7° 30.8° - - -
3/28 7:00am 144 2 G 6 32° 88% - - 28° 46.7° 30.8° - - -
3/28 6:50am 65 2 G 5 32° 94% - - 31° 46.7° 30.8° - - -
3/28 6:40am 87 1 G 4 32° 91% - - 29° 46.7° 30.8° - - -
3/28 6:30am 101 1 G 3 32° 90% - - 29° 46.7° 31.2° - - -
3/28 6:20am 147 2 G 4 32° 91% - - 30° 46.7° 31.2° - - -
3/28 6:10am 128 4 G 5 32° 92% - - 30° 46.7° 31.2° - - -
3/28 6:00am 140 2 G 5 32° 88% - - 29° 46.7° 31.4° - - -